| Date | Time | Temp. (oF) | Dew Point (oF) | Rel. Hum. (%) | Press. (in.) | Wind Dir. (deg.) | Wind Speed (mph) | Hourly Rainfall (i n.) |
|
|---|---|---|---|---|---|---|---|---|---|
| 1 | 04/18 | 24:00 | 45 | 34 | 66 | 29.89 | 630 | 0 | 0.00 |
| 2 | 04/17 | 23:00 | 44 | 33 | 66 | 29.91 | 630 | 0 | 0.00 |
| 3 | 04/17 | 22:00 | 45 | 33 | 64 | 29.89 | 630 | 0 | 0.00 |
| 4 | 04/17 | 21:00 | 47 | 34 | 62 | 29.88 | 630 | 0 | 0.00 |
| 5 | 04/17 | 20:00 | 49 | 35 | 60 | 29.86 | 630 | 0 | 0.00 |
| 6 | 04/17 | 19:00 | 51 | 36 | 58 | 29.84 | 630 | 0 | 0.00 |
| 7 | 04/17 | 18:00 | 52 | 37 | 57 | 29.84 | 630 | 0 | 0.00 |
| 8 | 04/17 | 17:00 | 54 | 35 | 50 | 29.80 | 630 | 0 | 0.00 |
| 9 | 04/17 | 16:00 | 55 | 35 | 47 | 29.77 | 630 | 0 | 0.00 |
| 10 | 04/17 | 15:00 | 53 | 34 | 49 | 29.71 | 630 | 0 | 0.00 |
| 11 | 04/17 | 14:00 | 54 | 33 | 45 | 29.72 | 630 | 0 | 0.00 |
| 12 | 04/17 | 13:00 | 54 | 32 | 44 | 29.81 | 630 | 0 | 0.00 |
| 13 | 04/17 | 12:00 | 55 | 32 | 42 | 29.82 | 630 | 0 | 0.00 |
| 14 | 04/17 | 11:00 | 54 | 31 | 43 | 29.80 | 630 | 0 | 0.00 |
| 15 | 04/17 | 10:00 | 52 | 31 | 46 | 29.79 | 630 | 0 | 0.00 |
| 16 | 04/17 | 09:00 | 50 | 33 | 52 | 29.79 | 630 | 0 | 0.00 |
| 17 | 04/17 | 08:00 | 44 | 31 | 61 | 29.79 | 630 | 0 | 0.00 |
| 18 | 04/17 | 07:00 | 44 | 31 | 61 | 29.78 | 630 | 0 | 0.00 |
| 19 | 04/17 | 06:00 | 44 | 30 | 60 | 29.76 | 630 | 0 | 0.00 |
| 20 | 04/17 | 05:00 | 43 | 34 | 72 | 29.76 | 630 | 0 | 0.00 |
| 21 | 04/17 | 04:00 | 45 | 35 | 69 | 29.75 | 630 | 0 | 0.00 |
| 22 | 04/17 | 03:00 | 45 | 36 | 71 | 29.75 | 630 | 0 | 0.00 |
| 23 | 04/17 | 02:00 | 46 | 35 | 67 | 29.76 | 630 | 0 | 0.00 |
| 24 | 04/17 | 01:00 | 47 | 35 | 65 | 29.75 | 630 | 0 | 0.00 |